Time;durP1;ratioP1;P1;durP2;ratioP2;P2;SDS_P1;SDS_P2;PMS_P1;PMS_P2;Temp;Humidity;BMP_temperature;BMP_pressure;BME280_temperature;BME280_humidity;BME280_pressure;Samples;Min_cycle;Max_cycle;Signal;HPM_P1;HPM_P2
2023/03/09 00:01:29;;;;;;;17.25;9.13;;;1.50;99.90;;;;;;5068448;28;20029;-72
2023/03/09 00:03:56;;;;;;;18.98;9.57;;;1.60;99.90;;;;;;5072708;28;20052;-72
2023/03/09 00:06:22;;;;;;;16.30;8.52;;;1.50;99.90;;;;;;5070286;28;20170;-73
2023/03/09 00:08:48;;;;;;;17.42;9.18;;;1.60;99.90;;;;;;5073436;28;20063;-72
2023/03/09 00:11:15;;;;;;;17.17;9.05;;;1.50;99.90;;;;;;5072312;28;20048;-72
2023/03/09 00:13:41;;;;;;;17.40;9.05;;;1.60;99.90;;;;;;5069514;28;20037;-72
2023/03/09 00:16:28;;;;;;;19.25;9.30;;;1.60;99.90;;;;;;5064495;28;20037;-72
2023/03/09 00:18:57;;;;;;;17.08;9.15;;;1.60;99.90;;;;;;5071249;28;20086;-72
2023/03/09 00:21:37;;;;;;;17.70;9.13;;;1.60;99.90;;;;;;5072460;28;20047;-72
2023/03/09 00:24:20;;;;;;;16.50;9.50;;;1.50;99.90;;;;;;5070847;28;20044;-72
2023/03/09 00:26:51;;;;;;;17.63;9.73;;;1.50;99.90;;;;;;5067041;28;20048;-71
2023/03/09 00:29:18;;;;;;;16.67;9.43;;;1.50;99.90;;;;;;5068634;28;20048;-74
2023/03/09 00:31:44;;;;;;;18.65;9.40;;;1.50;99.90;;;;;;5064832;28;20372;-72
2023/03/09 00:34:12;;;;;;;18.20;9.95;;;1.60;99.90;;;;;;5066232;28;20048;-72
2023/03/09 00:36:38;;;;;;;24.63;9.65;;;1.50;99.90;;;;;;5066476;28;20090;-72
2023/03/09 00:39:04;;;;;;;17.08;10.10;;;1.60;99.90;;;;;;5067365;28;20039;-72
2023/03/09 00:41:31;;;;;;;21.17;10.73;;;1.90;99.90;;;;;;5069884;28;20516;-72
2023/03/09 00:43:58;;;;;;;19.30;11.45;;;1.60;99.90;;;;;;5070299;28;20048;-72
2023/03/09 00:46:24;;;;;;;16.73;10.00;;;1.50;99.90;;;;;;5060167;28;20094;-73
2023/03/09 00:48:50;;;;;;;20.65;10.65;;;1.50;99.90;;;;;;5056964;28;20041;-72
2023/03/09 00:51:16;;;;;;;17.60;11.02;;;1.80;99.90;;;;;;5071948;28;20056;-72
2023/03/09 00:53:42;;;;;;;20.05;11.77;;;1.50;99.90;;;;;;5070031;28;20040;-72
2023/03/09 00:56:16;;;;;;;22.27;12.27;;;1.40;99.90;;;;;;5071169;28;20436;-72
2023/03/09 00:58:42;;;;;;;27.65;12.05;;;1.40;99.90;;;;;;5072316;28;20040;-72
2023/03/09 01:01:09;;;;;;;19.10;11.73;;;1.40;99.90;;;;;;5072605;28;20044;-73
2023/03/09 01:03:35;;;;;;;21.83;11.98;;;1.40;99.90;;;;;;5072428;28;20052;-72
2023/03/09 01:06:01;;;;;;;21.45;11.65;;;1.40;99.90;;;;;;5072066;28;20494;-72
2023/03/09 01:08:27;;;;;;;21.95;11.40;;;1.40;99.90;;;;;;5068516;28;20036;-72
2023/03/09 01:10:52;;;;;;;20.38;11.68;;;1.30;99.90;;;;;;5069673;28;20041;-72
2023/03/09 01:13:18;;;;;;;21.20;11.63;;;1.40;99.90;;;;;;5071128;28;20059;-72
2023/03/09 01:15:44;;;;;;;21.60;12.55;;;1.30;99.90;;;;;;5068234;28;20505;-72
2023/03/09 01:18:10;;;;;;;23.25;12.88;;;1.30;99.90;;;;;;5065036;28;20040;-72
2023/03/09 01:20:35;;;;;;;20.40;11.43;;;1.30;99.90;;;;;;5068114;28;20381;-72
2023/03/09 01:23:01;;;;;;;18.80;11.82;;;1.20;99.90;;;;;;5064748;28;20033;-72
2023/03/09 01:25:27;;;;;;;18.63;11.15;;;1.20;99.90;;;;;;5069658;28;20086;-72
2023/03/09 01:27:53;;;;;;;21.73;11.38;;;1.20;99.90;;;;;;5067893;28;20091;-72
2023/03/09 01:30:19;;;;;;;21.15;11.55;;;1.20;99.90;;;;;;5069652;28;20036;-72
2023/03/09 01:32:44;;;;;;;19.60;11.60;;;1.10;99.90;;;;;;5061741;28;20446;-72
2023/03/09 01:35:10;;;;;;;22.23;11.73;;;1.10;99.90;;;;;;5064131;28;20039;-74
2023/03/09 01:37:36;;;;;;;21.10;12.52;;;1.20;99.90;;;;;;5064378;28;20063;-72
2023/03/09 01:40:05;;;;;;;20.85;12.18;;;1.10;99.90;;;;;;5067607;28;20609;-71
2023/03/09 01:42:31;;;;;;;23.25;12.77;;;1.10;99.90;;;;;;5071023;28;20086;-71
2023/03/09 01:45:18;;;;;;;23.60;11.48;;;1.00;99.90;;;;;;5054219;28;20044;-72
2023/03/09 01:47:44;;;;;;;21.92;11.98;;;1.00;99.90;;;;;;5065437;28;20494;-73
2023/03/09 01:50:10;;;;;;;22.77;12.35;;;0.90;99.90;;;;;;5069238;28;20093;-71
2023/03/09 01:52:37;;;;;;;24.83;13.00;;;0.90;99.90;;;;;;5068536;28;20051;-71
2023/03/09 01:55:10;;;;;;;22.65;11.43;;;0.80;99.90;;;;;;5063290;28;20119;-71
2023/03/09 01:57:52;;;;;;;21.70;12.07;;;0.80;99.90;;;;;;5063693;28;20045;-72
2023/03/09 02:00:20;;;;;;;23.58;12.52;;;0.70;99.90;;;;;;5066616;28;20067;-72
2023/03/09 02:02:51;;;;;;;21.33;12.13;;;0.70;99.90;;;;;;5069203;28;20058;-71
2023/03/09 02:05:23;;;;;;;24.10;12.38;;;0.70;99.90;;;;;;5063393;28;20045;-72
2023/03/09 02:07:50;;;;;;;25.13;12.73;;;0.70;99.90;;;;;;5070638;28;20056;-72
2023/03/09 02:10:45;;;;;;;22.85;12.65;;;0.60;99.90;;;;;;5068560;28;20053;-71
2023/03/09 02:13:15;;;;;;;20.05;11.65;;;0.60;99.90;;;;;;5068071;28;20121;-71
2023/03/09 02:15:41;;;;;;;22.15;12.15;;;0.60;99.90;;;;;;5069546;28;20091;-71
2023/03/09 02:18:07;;;;;;;20.65;11.68;;;0.50;99.90;;;;;;5072942;28;20076;-71
2023/03/09 02:20:55;;;;;;;23.25;12.50;;;0.50;99.90;;;;;;5067987;28;20095;-71
2023/03/09 02:23:35;;;;;;;23.88;11.60;;;0.50;99.90;;;;;;5068338;28;20048;-72
2023/03/09 02:26:25;;;;;;;21.05;11.57;;;1.40;99.90;;;;;;5065826;28;20044;-71
2023/03/09 02:28:51;;;;;;;29.10;13.70;;;0.50;99.90;;;;;;5067175;28;20059;-72
2023/03/09 02:31:19;;;;;;;24.33;13.18;;;0.40;99.90;;;;;;5069433;28;20045;-72
2023/03/09 02:33:45;;;;;;;22.15;12.30;;;0.50;99.90;;;;;;5069882;28;20549;-72
2023/03/09 02:36:10;;;;;;;27.58;14.07;;;0.50;99.90;;;;;;5071651;28;20348;-71
2023/03/09 02:38:36;;;;;;;29.13;13.50;;;0.50;99.90;;;;;;5071729;28;20040;-72
2023/03/09 02:41:04;;;;;;;28.15;13.68;;;0.40;99.90;;;;;;5072357;28;20040;-73
2023/03/09 02:43:36;;;;;;;27.67;13.83;;;0.50;99.90;;;;;;5071052;28;20041;-73
2023/03/09 02:46:02;;;;;;;29.10;14.82;;;0.40;99.90;;;;;;5063554;28;20048;-71
2023/03/09 02:48:27;;;;;;;25.73;12.77;;;0.40;99.90;;;;;;5072718;28;20044;-72
2023/03/09 02:50:53;;;;;;;28.40;14.38;;;0.40;99.90;;;;;;5072675;28;20064;-71
2023/03/09 02:53:19;;;;;;;26.23;13.15;;;0.40;99.90;;;;;;5070055;28;20497;-72
2023/03/09 02:55:44;;;;;;;28.20;13.95;;;0.40;99.90;;;;;;5062508;28;20498;-71
2023/03/09 02:58:10;;;;;;;26.85;14.10;;;0.40;99.90;;;;;;5069967;28;20052;-72
2023/03/09 03:00:35;;;;;;;28.02;13.65;;;0.30;99.90;;;;;;5069598;28;20037;-71
2023/03/09 03:03:01;;;;;;;24.45;13.13;;;0.30;99.90;;;;;;5069306;28;20086;-71
2023/03/09 03:05:27;;;;;;;32.58;14.85;;;0.40;99.90;;;;;;5064954;28;20478;-72
2023/03/09 03:07:52;;;;;;;25.38;14.48;;;0.30;99.90;;;;;;5064886;28;20375;-72
2023/03/09 03:10:18;;;;;;;31.08;15.75;;;0.40;99.90;;;;;;5070069;28;20048;-72
2023/03/09 03:12:44;;;;;;;29.33;14.80;;;0.40;99.90;;;;;;5069454;28;20099;-71
2023/03/09 03:15:10;;;;;;;30.17;15.70;;;0.40;99.90;;;;;;5054439;28;20410;-71
2023/03/09 03:17:36;;;;;;;30.85;15.48;;;0.40;99.90;;;;;;5063009;28;20485;-71
2023/03/09 03:20:05;;;;;;;33.25;16.00;;;0.40;99.90;;;;;;5065352;28;20128;-72
2023/03/09 03:22:31;;;;;;;33.72;16.55;;;0.40;99.90;;;;;;5065462;28;20481;-71
2023/03/09 03:24:56;;;;;;;35.88;16.70;;;0.40;99.90;;;;;;5059486;28;20041;-71
2023/03/09 03:27:22;;;;;;;30.48;15.95;;;0.40;99.90;;;;;;5071491;28;20045;-71
2023/03/09 03:29:51;;;;;;;29.65;15.43;;;0.50;99.90;;;;;;5062802;28;20076;-72
2023/03/09 03:32:17;;;;;;;30.48;16.35;;;0.50;99.90;;;;;;5066317;28;20039;-71
2023/03/09 03:34:43;;;;;;;32.85;16.13;;;0.50;99.90;;;;;;5055194;28;20045;-71
2023/03/09 03:37:08;;;;;;;35.30;16.42;;;0.50;99.90;;;;;;5064433;28;20069;-72
2023/03/09 03:39:34;;;;;;;36.03;16.30;;;0.50;99.90;;;;;;5064086;28;20489;-71
2023/03/09 03:41:59;;;;;;;31.13;16.70;;;0.60;99.90;;;;;;5071419;28;20037;-71
2023/03/09 03:44:25;;;;;;;26.83;14.55;;;0.60;99.90;;;;;;5069764;28;20525;-71
2023/03/09 03:46:51;;;;;;;29.92;15.70;;;0.60;99.90;;;;;;5070402;28;20470;-71
2023/03/09 03:49:17;;;;;;;28.98;15.30;;;0.60;99.90;;;;;;5070174;28;20052;-71
2023/03/09 03:51:42;;;;;;;33.97;16.90;;;0.60;99.90;;;;;;5068930;28;20044;-71
2023/03/09 03:54:08;;;;;;;32.08;15.80;;;0.60;99.90;;;;;;5070195;28;20037;-71
2023/03/09 03:56:34;;;;;;;30.20;15.63;;;0.70;99.90;;;;;;5070847;28;20186;-72
2023/03/09 03:59:00;;;;;;;34.20;17.63;;;0.60;99.90;;;;;;5058682;28;20040;-71
2023/03/09 04:01:25;;;;;;;29.02;15.43;;;0.60;99.90;;;;;;5068036;28;20497;-71
2023/03/09 04:03:51;;;;;;;32.40;16.77;;;0.60;99.90;;;;;;5071909;28;20095;-70
2023/03/09 04:06:17;;;;;;;29.95;17.05;;;0.60;99.90;;;;;;5067951;28;20033;-71
2023/03/09 04:08:43;;;;;;;35.90;17.92;;;0.60;99.90;;;;;;5072282;28;20045;-72
2023/03/09 04:11:09;;;;;;;34.55;18.42;;;0.60;99.90;;;;;;5064347;28;20052;-72
2023/03/09 04:13:35;;;;;;;31.65;17.52;;;0.70;99.90;;;;;;5069992;28;20389;-72
2023/03/09 04:16:01;;;;;;;39.30;16.75;;;0.70;99.90;;;;;;5070899;28;20037;-72
2023/03/09 04:18:27;;;;;;;31.50;17.10;;;0.70;99.90;;;;;;5066469;28;20045;-72
2023/03/09 04:20:52;;;;;;;32.63;17.23;;;0.70;99.90;;;;;;5071690;28;20036;-72
2023/03/09 04:23:18;;;;;;;36.38;17.60;;;0.90;99.90;;;;;;5070439;28;20371;-72
2023/03/09 04:25:52;;;;;;;35.28;17.92;;;0.70;99.90;;;;;;5068221;28;20041;-72
2023/03/09 04:28:18;;;;;;;31.67;16.13;;;0.70;99.90;;;;;;5068398;28;20290;-72
2023/03/09 04:30:43;;;;;;;30.58;16.77;;;0.70;99.90;;;;;;5070497;28;20051;-72
2023/03/09 04:33:10;;;;;;;34.33;17.42;;;0.70;99.90;;;;;;5060912;28;20067;-72
2023/03/09 04:35:36;;;;;;;34.53;17.60;;;0.70;99.90;;;;;;5061649;28;20442;-73
2023/03/09 04:38:01;;;;;;;33.78;17.15;;;0.70;99.90;;;;;;5068858;28;20072;-72
2023/03/09 04:40:27;;;;;;;35.55;18.58;;;0.70;99.90;;;;;;5057507;28;20076;-71
2023/03/09 04:42:53;;;;;;;32.42;16.65;;;1.70;99.90;;;;;;5068390;28;20115;-71
2023/03/09 04:45:18;;;;;;;34.33;16.95;;;0.70;99.90;;;;;;5069219;28;20082;-71
2023/03/09 04:47:44;;;;;;;32.15;17.80;;;0.60;99.90;;;;;;5065038;28;20123;-71
2023/03/09 04:50:10;;;;;;;34.58;17.85;;;0.60;99.90;;;;;;5066510;28;20162;-72
2023/03/09 04:52:36;;;;;;;33.65;17.83;;;0.60;99.90;;;;;;5067326;28;20044;-72
2023/03/09 04:55:01;;;;;;;29.90;16.08;;;0.60;99.90;;;;;;5063942;28;20395;-71
2023/03/09 04:57:27;;;;;;;33.75;16.75;;;0.60;99.90;;;;;;5068946;28;20423;-72
2023/03/09 04:59:53;;;;;;;34.38;17.17;;;0.60;99.90;;;;;;5062787;28;20048;-71
2023/03/09 05:02:19;;;;;;;32.03;16.63;;;0.60;99.90;;;;;;5067716;28;20039;-72
2023/03/09 05:04:44;;;;;;;29.95;16.35;;;0.60;99.90;;;;;;5067194;28;20047;-71
2023/03/09 05:07:10;;;;;;;33.53;16.10;;;0.60;99.90;;;;;;5070909;28;20045;-72
2023/03/09 05:09:35;;;;;;;31.80;16.15;;;0.60;99.90;;;;;;5070830;28;20056;-71
2023/03/09 05:12:01;;;;;;;29.30;15.48;;;0.60;99.90;;;;;;5061839;28;20041;-71
2023/03/09 05:14:28;;;;;;;30.20;16.40;;;0.60;99.90;;;;;;5068998;28;20044;-71
2023/03/09 05:16:54;;;;;;;34.58;16.33;;;0.60;99.90;;;;;;5071927;28;20056;-71
2023/03/09 05:19:20;;;;;;;31.52;16.27;;;0.60;99.90;;;;;;5063167;28;20041;-71
2023/03/09 05:21:46;;;;;;;30.55;15.77;;;0.60;99.90;;;;;;5068426;28;20529;-71
2023/03/09 05:24:12;;;;;;;32.42;17.15;;;0.60;99.90;;;;;;5066313;28;20124;-71
2023/03/09 05:26:37;;;;;;;30.60;15.70;;;0.60;99.90;;;;;;5070382;28;20128;-72
2023/03/09 05:29:03;;;;;;;30.30;15.63;;;0.60;99.90;;;;;;5065241;28;20409;-72
2023/03/09 05:31:29;;;;;;;30.10;16.08;;;0.60;99.90;;;;;;5066048;28;20497;-71
2023/03/09 05:33:54;;;;;;;29.58;15.40;;;0.60;99.90;;;;;;5071661;28;20043;-71
2023/03/09 05:36:23;;;;;;;29.63;15.98;;;0.60;99.90;;;;;;5069775;28;20043;-71
2023/03/09 05:38:49;;;;;;;29.00;15.70;;;0.50;99.90;;;;;;5071057;28;20049;-71
2023/03/09 05:41:16;;;;;;;33.20;16.17;;;0.60;99.90;;;;;;5066090;28;20037;-71
2023/03/09 05:43:42;;;;;;;29.13;15.73;;;0.60;99.90;;;;;;5069288;28;20052;-71
2023/03/09 05:46:13;;;;;;;30.98;14.52;;;0.50;99.90;;;;;;5071414;28;20405;-72
2023/03/09 05:48:39;;;;;;;33.38;17.30;;;0.50;99.90;;;;;;5068654;28;20052;-71
2023/03/09 05:51:07;;;;;;;29.95;15.13;;;0.50;99.90;;;;;;5066382;28;20124;-72
2023/03/09 05:53:33;;;;;;;30.02;16.58;;;0.50;99.90;;;;;;5072340;28;20495;-72
2023/03/09 05:55:59;;;;;;;29.90;16.58;;;0.60;99.90;;;;;;5076802;28;20037;-72
2023/03/09 05:58:25;;;;;;;29.65;15.73;;;0.50;99.90;;;;;;5067639;28;20170;-71
2023/03/09 06:00:52;;;;;;;29.20;16.33;;;0.50;99.90;;;;;;5065319;28;20037;-72
2023/03/09 06:03:19;;;;;;;28.02;15.68;;;0.50;99.90;;;;;;5058740;28;20041;-72
2023/03/09 06:05:45;;;;;;;28.13;15.23;;;0.50;99.90;;;;;;5064760;28;20044;-72
2023/03/09 06:08:11;;;;;;;29.38;17.00;;;0.50;99.90;;;;;;5067218;28;20130;-71
2023/03/09 06:10:37;;;;;;;30.73;15.60;;;0.50;99.90;;;;;;5062631;28;20045;-71
2023/03/09 06:13:03;;;;;;;30.40;15.95;;;0.50;99.90;;;;;;5068806;28;20043;-71
2023/03/09 06:15:29;;;;;;;27.23;15.50;;;0.50;99.90;;;;;;5067293;28;20041;-71
2023/03/09 06:17:55;;;;;;;30.90;15.75;;;0.50;99.90;;;;;;5067092;28;20045;-71
2023/03/09 06:20:21;;;;;;;29.92;15.23;;;0.50;99.90;;;;;;5073515;28;20359;-71
2023/03/09 06:22:46;;;;;;;27.52;15.00;;;0.50;99.90;;;;;;5066932;28;20115;-71
2023/03/09 06:25:12;;;;;;;30.05;13.07;;;0.50;99.90;;;;;;5072613;28;20111;-71
2023/03/09 06:27:38;;;;;;;25.65;14.63;;;0.50;99.90;;;;;;5072611;28;20052;-71
2023/03/09 06:30:05;;;;;;;33.17;14.70;;;0.50;99.90;;;;;;5069104;28;20044;-71
2023/03/09 06:32:34;;;;;;;31.58;14.90;;;0.50;99.90;;;;;;5064042;28;20032;-71
2023/03/09 06:35:00;;;;;;;27.98;14.88;;;0.50;99.90;;;;;;5067779;28;20038;-71
2023/03/09 06:37:26;;;;;;;29.27;15.38;;;0.50;99.90;;;;;;5068284;28;20523;-72
2023/03/09 06:39:52;;;;;;;28.27;16.13;;;0.50;99.90;;;;;;5065500;28;20677;-72
2023/03/09 06:42:18;;;;;;;26.30;15.55;;;0.60;99.90;;;;;;5065317;28;20036;-71
2023/03/09 06:44:44;;;;;;;28.60;15.48;;;0.60;99.90;;;;;;5064627;28;20059;-72
2023/03/09 06:47:11;;;;;;;32.00;15.98;;;0.60;99.90;;;;;;5066356;28;20048;-70
2023/03/09 06:49:37;;;;;;;27.63;15.40;;;0.60;99.90;;;;;;5067387;28;20045;-71
2023/03/09 06:52:03;;;;;;;28.05;15.05;;;0.60;99.90;;;;;;5066767;28;20040;-71
2023/03/09 06:54:28;;;;;;;25.48;14.10;;;0.70;99.90;;;;;;5068230;28;20033;-71
2023/03/09 06:56:54;;;;;;;28.55;15.20;;;0.70;99.90;;;;;;5071203;28;20375;-71
2023/03/09 06:59:20;;;;;;;28.73;14.65;;;0.70;99.90;;;;;;5071457;28;20117;-71
2023/03/09 07:01:46;;;;;;;24.45;14.10;;;0.80;99.90;;;;;;5071521;28;20041;-71
2023/03/09 07:04:11;;;;;;;27.05;15.00;;;0.80;99.90;;;;;;5056142;28;20059;-72
2023/03/09 07:06:37;;;;;;;25.45;15.38;;;0.80;99.90;;;;;;5061496;28;20040;-71
2023/03/09 07:09:03;;;;;;;29.17;14.82;;;0.80;99.90;;;;;;5073775;28;20037;-71
2023/03/09 07:11:29;;;;;;;27.80;16.05;;;0.80;99.90;;;;;;5072927;28;20037;-71
2023/03/09 07:13:55;;;;;;;30.48;15.80;;;0.80;99.90;;;;;;5070001;28;20037;-71
2023/03/09 07:16:22;;;;;;;29.23;15.50;;;0.80;99.90;;;;;;5071273;28;20109;-71
2023/03/09 07:18:48;;;;;;;27.17;15.38;;;0.90;99.90;;;;;;5065033;28;20139;-71
2023/03/09 07:21:14;;;;;;;29.48;14.18;;;0.90;99.90;;;;;;5070440;28;20047;-71
2023/03/09 07:23:40;;;;;;;27.17;13.85;;;1.00;99.90;;;;;;5056400;28;20044;-71
2023/03/09 07:26:05;;;;;;;24.85;14.27;;;1.80;99.90;;;;;;5074438;28;20062;-71
2023/03/09 07:28:32;;;;;;;24.02;13.55;;;1.10;99.90;;;;;;5065911;28;20037;-72
2023/03/09 07:30:58;;;;;;;25.20;14.30;;;1.20;99.90;;;;;;5064526;28;20565;-71
2023/03/09 07:33:24;;;;;;;26.42;14.20;;;1.30;99.90;;;;;;5074722;28;20041;-71
2023/03/09 07:35:50;;;;;;;25.75;14.05;;;1.30;99.90;;;;;;5071986;28;20113;-71
2023/03/09 07:38:15;;;;;;;24.35;14.57;;;1.50;99.90;;;;;;5069475;28;20044;-71
2023/03/09 07:40:41;;;;;;;26.73;14.35;;;1.40;99.90;;;;;;5062131;28;20033;-71
2023/03/09 07:43:10;;;;;;;27.83;14.73;;;1.40;99.90;;;;;;5062564;28;20102;-71
2023/03/09 07:45:37;;;;;;;23.75;13.98;;;1.40;99.90;;;;;;5070481;28;20033;-71
2023/03/09 07:48:03;;;;;;;25.30;14.23;;;1.40;99.90;;;;;;5072668;28;20052;-71
2023/03/09 07:50:28;;;;;;;25.60;13.23;;;1.50;99.90;;;;;;5073943;28;20052;-71
2023/03/09 07:52:55;;;;;;;22.15;13.18;;;1.60;99.90;;;;;;5065970;28;20109;-71
2023/03/09 07:55:22;;;;;;;21.70;12.07;;;1.70;99.90;;;;;;5062274;28;21403;-71
2023/03/09 07:57:48;;;;;;;21.30;12.30;;;1.80;99.90;;;;;;5059467;28;20045;-71
2023/03/09 08:00:20;;;;;;;23.70;13.23;;;1.90;99.90;;;;;;5053908;28;20052;-72
2023/03/09 08:02:46;;;;;;;23.08;12.70;;;2.00;99.90;;;;;;5062336;28;20049;-69
2023/03/09 08:05:13;;;;;;;21.88;12.82;;;2.10;99.90;;;;;;5072500;28;20177;-71
2023/03/09 08:07:42;;;;;;;19.92;12.90;;;2.20;99.90;;;;;;5069248;28;20138;-70
2023/03/09 08:10:09;;;;;;;19.65;12.43;;;2.10;99.90;;;;;;5068856;28;20171;-71
2023/03/09 08:12:35;;;;;;;18.13;11.70;;;2.20;99.90;;;;;;5073863;28;20378;-70
2023/03/09 08:15:01;;;;;;;18.75;11.25;;;2.20;99.90;;;;;;5066073;28;20071;-70
2023/03/09 08:17:27;;;;;;;22.88;11.70;;;2.20;99.90;;;;;;5053426;28;20059;-70
2023/03/09 08:19:53;;;;;;;19.02;11.75;;;2.30;99.90;;;;;;5053500;28;20523;-70
2023/03/09 08:22:19;;;;;;;20.73;11.43;;;2.30;99.90;;;;;;5053756;28;20068;-70
2023/03/09 08:24:44;;;;;;;19.67;11.95;;;2.40;99.90;;;;;;5053333;28;20044;-70
2023/03/09 08:27:10;;;;;;;20.00;10.38;;;2.60;99.90;;;;;;5053757;28;20091;-70
2023/03/09 08:29:35;;;;;;;18.55;10.98;;;2.40;99.90;;;;;;5053524;28;20037;-71
2023/03/09 08:32:06;;;;;;;19.90;10.70;;;2.40;99.90;;;;;;5067577;28;20536;-71
2023/03/09 08:34:31;;;;;;;18.67;10.65;;;2.40;99.90;;;;;;5073319;28;20076;-70
2023/03/09 08:36:57;;;;;;;17.55;10.60;;;2.50;99.90;;;;;;5068352;28;20079;-70
2023/03/09 08:39:23;;;;;;;15.45;9.63;;;2.50;99.90;;;;;;5063621;28;20037;-71
2023/03/09 08:41:48;;;;;;;17.02;10.35;;;2.50;99.90;;;;;;5073922;28;20041;-71
2023/03/09 08:44:14;;;;;;;15.93;9.70;;;2.60;99.90;;;;;;5065783;28;20037;-71
2023/03/09 08:46:39;;;;;;;15.35;9.90;;;2.70;99.90;;;;;;5064908;28;20501;-72
2023/03/09 08:49:05;;;;;;;17.67;10.32;;;2.80;99.90;;;;;;5053440;28;20147;-72
2023/03/09 08:51:31;;;;;;;17.08;9.77;;;2.80;99.90;;;;;;5053719;28;20128;-72
2023/03/09 08:53:56;;;;;;;17.38;8.98;;;2.80;99.90;;;;;;5053706;28;20037;-72
2023/03/09 08:56:22;;;;;;;16.45;8.70;;;2.90;99.90;;;;;;5056493;28;20068;-71
2023/03/09 08:58:49;;;;;;;16.17;8.77;;;3.00;99.90;;;;;;5073853;28;20056;-72
2023/03/09 09:01:15;;;;;;;14.45;9.00;;;3.20;99.90;;;;;;5053074;28;20142;-72
2023/03/09 09:03:40;;;;;;;14.23;9.20;;;3.30;99.90;;;;;;5052266;28;20048;-72
2023/03/09 09:06:09;;;;;;;13.70;9.10;;;3.40;99.90;;;;;;5053443;28;20033;-71
2023/03/09 09:08:35;;;;;;;13.90;9.00;;;3.40;99.90;;;;;;5055371;28;20044;-72
2023/03/09 09:11:08;;;;;;;13.35;8.65;;;3.50;99.90;;;;;;5073133;28;20041;-72
2023/03/09 09:13:34;;;;;;;14.25;8.95;;;3.50;99.90;;;;;;5056482;28;20430;-71
2023/03/09 09:16:00;;;;;;;15.02;8.85;;;3.60;99.90;;;;;;5053195;28;20048;-72
2023/03/09 09:18:26;;;;;;;13.70;9.05;;;3.70;99.90;;;;;;5052952;28;20385;-72
2023/03/09 09:20:52;;;;;;;16.38;9.23;;;3.60;99.90;;;;;;5052244;28;20041;-71
2023/03/09 09:23:18;;;;;;;14.25;9.02;;;3.50;99.90;;;;;;5069307;28;20060;-71
2023/03/09 09:25:43;;;;;;;13.73;9.35;;;3.40;99.90;;;;;;5070998;28;20036;-71
2023/03/09 09:28:09;;;;;;;17.27;8.88;;;3.50;99.90;;;;;;5072533;28;20045;-71
2023/03/09 09:30:36;;;;;;;16.02;8.70;;;3.60;99.90;;;;;;5057514;28;20049;-70
2023/03/09 09:33:04;;;;;;;14.07;8.23;;;3.80;99.90;;;;;;5051363;28;20086;-71
2023/03/09 09:35:31;;;;;;;12.98;8.60;;;3.90;99.90;;;;;;5052637;28;20128;-71
2023/03/09 09:37:59;;;;;;;13.65;8.90;;;3.90;99.90;;;;;;5053436;28;20033;-71
2023/03/09 09:40:24;;;;;;;13.43;8.60;;;4.00;99.90;;;;;;5067877;28;20078;-71
2023/03/09 09:42:52;;;;;;;13.32;8.90;;;4.20;99.90;;;;;;5072741;28;20075;-71
2023/03/09 09:45:30;;;;;;;13.55;7.72;;;4.30;99.90;;;;;;5071506;28;20127;-71
2023/03/09 09:47:58;;;;;;;14.40;7.80;;;4.30;99.90;;;;;;5067196;28;20037;-71
2023/03/09 09:50:52;;;;;;;14.65;8.30;;;4.40;99.90;;;;;;5072326;28;20113;-72
2023/03/09 09:53:48;;;;;;;11.90;7.75;;;4.60;99.90;;;;;;5080388;28;20045;-71
2023/03/09 09:56:18;;;;;;;14.35;6.93;;;5.00;99.90;;;;;;5054915;28;20048;-71
2023/03/09 09:58:49;;;;;;;11.90;7.13;;;5.30;99.90;;;;;;5062622;28;20132;-71
2023/03/09 10:01:36;;;;;;;9.85;6.53;;;5.50;99.90;;;;;;5052933;28;20048;-71
2023/03/09 10:04:07;;;;;;;10.95;6.70;;;5.70;99.90;;;;;;5052859;28;20037;-71
2023/03/09 10:06:33;;;;;;;12.57;7.45;;;6.00;99.90;;;;;;5053403;28;20098;-72
2023/03/09 10:09:04;;;;;;;10.55;7.35;;;6.40;99.90;;;;;;5072285;28;20116;-71
2023/03/09 10:11:31;;;;;;;11.85;6.85;;;6.40;99.90;;;;;;5074788;28;20049;-72
2023/03/09 10:14:06;;;;;;;12.50;6.38;;;6.60;99.90;;;;;;5057287;28;20041;-72
2023/03/09 10:17:00;;;;;;;8.43;5.57;;;6.70;99.90;;;;;;5051244;28;20041;-72
2023/03/09 10:19:35;;;;;;;9.50;5.82;;;6.80;99.90;;;;;;5052528;28;20056;-71
2023/03/09 10:22:14;;;;;;;8.30;5.93;;;6.70;99.90;;;;;;5052368;28;20509;-71
2023/03/09 10:24:45;;;;;;;7.38;5.55;;;6.60;99.90;;;;;;5052565;28;20076;-71
2023/03/09 10:27:25;;;;;;;8.70;5.95;;;6.40;99.90;;;;;;5052538;28;20065;-72
2023/03/09 10:29:57;;;;;;;9.95;5.85;;;5.90;99.90;;;;;;5052420;28;20045;-71
2023/03/09 10:32:53;;;;;;;7.00;4.97;;;5.70;99.90;;;;;;5071345;28;20044;-72
2023/03/09 10:35:35;;;;;;;6.90;4.97;;;6.10;99.90;;;;;;5076006;28;20401;-71
2023/03/09 10:38:01;;;;;;;8.38;4.78;;;6.10;99.90;;;;;;5073060;28;20132;-71
2023/03/09 10:40:30;;;;;;;6.45;4.25;;;6.20;99.90;;;;;;5074279;28;20489;-71
2023/03/09 10:42:59;;;;;;;6.90;4.07;;;6.30;99.90;;;;;;5064273;28;20577;-73
2023/03/09 10:45:30;;;;;;;7.13;4.90;;;5.90;99.90;;;;;;5056033;28;20127;-71
2023/03/09 10:48:06;;;;;;;9.15;5.00;;;5.80;99.90;;;;;;5056094;28;20553;-70
2023/03/09 10:50:40;;;;;;;7.85;5.15;;;5.50;99.90;;;;;;5069413;28;20067;-70
2023/03/09 10:53:48;;;;;;;6.82;5.00;;;5.30;99.90;;;;;;5075690;28;20049;-71
2023/03/09 10:56:20;;;;;;;8.02;5.68;;;5.10;99.90;;;;;;5075613;28;20067;-70
2023/03/09 10:58:46;;;;;;;9.57;6.25;;;5.10;99.90;;;;;;5062347;28;20215;-71
2023/03/09 11:01:11;;;;;;;9.68;5.60;;;5.10;99.90;;;;;;5055321;28;20127;-71
2023/03/09 11:03:41;;;;;;;6.90;5.03;;;5.10;99.90;;;;;;5055607;28;20052;-71
2023/03/09 11:06:12;;;;;;;8.43;5.68;;;5.10;99.90;;;;;;5055709;28;20498;-73
2023/03/09 11:08:41;;;;;;;7.68;5.25;;;5.20;99.90;;;;;;5059732;28;20408;-70
2023/03/09 11:11:15;;;;;;;7.47;4.90;;;5.70;99.90;;;;;;5074693;28;20033;-71
2023/03/09 11:13:46;;;;;;;11.35;5.35;;;6.00;99.90;;;;;;5064684;28;20052;-71
2023/03/09 11:16:20;;;;;;;7.78;5.13;;;6.00;99.90;;;;;;5054184;28;20056;-72
2023/03/09 11:18:48;;;;;;;10.35;6.07;;;6.00;99.90;;;;;;5055255;28;20049;-71
2023/03/09 11:21:24;;;;;;;8.40;5.85;;;5.90;99.90;;;;;;5071603;28;20720;-72
2023/03/09 11:23:53;;;;;;;7.88;5.75;;;5.70;99.90;;;;;;5064821;28;20045;-72
2023/03/09 11:26:39;;;;;;;8.05;5.32;;;5.40;99.90;;;;;;5068441;28;20045;-71
2023/03/09 11:29:22;;;;;;;10.05;5.75;;;5.30;99.90;;;;;;5075483;28;20401;-72
2023/03/09 11:31:48;;;;;;;10.90;6.20;;;5.20;99.90;;;;;;5075052;28;20076;-71
2023/03/09 11:34:33;;;;;;;9.32;6.30;;;5.20;99.90;;;;;;5062706;28;20525;-72
2023/03/09 11:37:11;;;;;;;7.68;5.32;;;5.10;99.90;;;;;;5056879;28;20505;-71
2023/03/09 11:40:10;;;;;;;9.50;6.30;;;5.10;99.90;;;;;;5061855;28;20041;-72
2023/03/09 11:42:37;;;;;;;12.23;5.57;;;5.30;99.90;;;;;;5060297;28;20044;-72
2023/03/09 11:45:06;;;;;;;9.55;5.30;;;5.30;99.90;;;;;;5076212;28;20048;-72
2023/03/09 11:47:41;;;;;;;9.07;5.82;;;5.30;99.90;;;;;;5070718;28;20570;-72
2023/03/09 11:50:17;;;;;;;9.43;5.90;;;5.20;99.90;;;;;;5074181;28;20045;-72
2023/03/09 11:52:50;;;;;;;7.80;5.50;;;5.20;99.90;;;;;;5060908;28;20041;-72
2023/03/09 11:55:21;;;;;;;8.13;5.63;;;5.30;99.90;;;;;;5074274;28;20036;-71
2023/03/09 11:57:50;;;;;;;13.60;6.28;;;5.40;99.90;;;;;;5074672;28;20045;-71
2023/03/09 12:00:19;;;;;;;9.88;5.93;;;5.30;99.90;;;;;;5064639;28;20485;-71
2023/03/09 12:03:09;;;;;;;8.77;5.90;;;5.50;99.90;;;;;;5054452;28;20060;-72
2023/03/09 12:05:41;;;;;;;11.27;6.35;;;5.60;99.90;;;;;;5055147;28;20055;-71
2023/03/09 12:08:17;;;;;;;10.23;5.30;;;5.50;99.90;;;;;;5061176;28;20041;-71
2023/03/09 12:10:52;;;;;;;9.30;5.70;;;5.50;99.90;;;;;;5074975;28;20055;-71
2023/03/09 12:13:58;;;;;;;7.72;5.35;;;5.40;99.90;;;;;;5074062;28;20056;-71
2023/03/09 12:16:45;;;;;;;7.40;5.00;;;5.30;99.90;;;;;;5034773;28;20045;-71
2023/03/09 12:19:10;;;;;;;7.07;5.13;;;6.10;99.90;;;;;;5053482;28;20048;-71
2023/03/09 12:21:40;;;;;;;7.47;4.85;;;5.40;99.90;;;;;;5052518;28;20045;-72
2023/03/09 12:24:36;;;;;;;7.22;5.43;;;5.50;99.90;;;;;;5054138;28;20355;-71
2023/03/09 12:27:23;;;;;;;10.77;5.38;;;5.50;99.90;;;;;;5052429;28;20056;-72
2023/03/09 12:29:59;;;;;;;7.43;5.32;;;5.40;99.90;;;;;;5073240;28;20044;-71
2023/03/09 12:32:24;;;;;;;6.25;4.40;;;5.40;99.90;;;;;;5073787;28;20041;-71
2023/03/09 12:34:58;;;;;;;7.05;5.10;;;5.50;99.90;;;;;;5062305;28;20049;-71
2023/03/09 12:37:27;;;;;;;8.77;5.30;;;5.50;99.90;;;;;;5053993;28;20052;-71
2023/03/09 12:40:18;;;;;;;9.15;5.80;;;5.40;99.90;;;;;;5070902;28;20044;-71
2023/03/09 12:42:46;;;;;;;7.85;5.05;;;5.30;99.90;;;;;;5053554;28;20045;-71
2023/03/09 12:45:11;;;;;;;7.95;5.40;;;5.30;99.90;;;;;;5052305;28;20052;-71
2023/03/09 12:47:48;;;;;;;8.50;5.35;;;5.30;99.90;;;;;;5053943;28;20072;-71
2023/03/09 12:50:20;;;;;;;9.43;5.90;;;5.20;99.90;;;;;;5052880;28;20049;-71
2023/03/09 12:53:06;;;;;;;11.07;6.05;;;5.20;99.90;;;;;;5054407;28;20044;-71